Time;durP1;ratioP1;P1;durP2;ratioP2;P2;SDS_P1;SDS_P2;PMS_P1;PMS_P2;Temp;Humidity;BMP_temperature;BMP_pressure;BME280_temperature;BME280_humidity;BME280_pressure;Samples;Min_cycle;Max_cycle;Signal;HPM_P1;HPM_P2
2021/09/18 04:01:28;;;;;;;18.70;16.90;;;12.70;99.90;;;;;;5464508;23;20506;-66
2021/09/18 04:03:55;;;;;;;17.83;16.23;;;12.60;99.90;;;;;;4955502;29;20474;-67
2021/09/18 04:06:22;;;;;;;17.70;15.97;;;12.60;99.90;;;;;;4955858;29;20456;-66
2021/09/18 04:08:49;;;;;;;16.97;15.33;;;12.70;99.90;;;;;;4955934;29;20463;-67
2021/09/18 04:11:15;;;;;;;16.80;15.40;;;12.70;99.90;;;;;;4955630;29;20479;-66
2021/09/18 04:13:42;;;;;;;16.47;14.83;;;12.70;99.90;;;;;;4956016;29;20459;-66
2021/09/18 04:16:09;;;;;;;16.07;14.80;;;12.70;99.90;;;;;;4955585;29;20847;-67
2021/09/18 04:18:37;;;;;;;17.03;15.20;;;12.70;99.90;;;;;;4958219;28;20466;-66
2021/09/18 04:21:04;;;;;;;16.03;14.60;;;12.70;99.90;;;;;;4959041;29;20848;-66
2021/09/18 04:23:33;;;;;;;16.73;15.13;;;12.60;99.90;;;;;;4959227;29;20466;-67
2021/09/18 04:25:59;;;;;;;15.53;14.23;;;12.60;99.90;;;;;;4959297;29;20463;-66
2021/09/18 04:28:26;;;;;;;14.90;13.60;;;12.50;99.90;;;;;;4959146;29;20481;-66
2021/09/18 04:30:53;;;;;;;15.27;13.83;;;12.50;99.90;;;;;;4959195;29;20476;-67
2021/09/18 04:33:19;;;;;;;14.57;13.13;;;12.50;99.90;;;;;;4959284;29;20821;-67
2021/09/18 04:35:48;;;;;;;14.50;13.10;;;12.50;99.90;;;;;;4959065;28;20459;-67
2021/09/18 04:38:14;;;;;;;16.03;14.63;;;12.60;99.90;;;;;;4958988;29;20459;-66
2021/09/18 04:40:41;;;;;;;15.43;14.07;;;12.50;99.90;;;;;;4958940;29;20471;-66
2021/09/18 04:43:08;;;;;;;15.60;14.23;;;12.50;99.90;;;;;;4958156;28;20471;-67
2021/09/18 04:45:34;;;;;;;15.30;13.90;;;12.50;99.90;;;;;;4958998;29;20455;-66
2021/09/18 04:48:01;;;;;;;15.87;14.50;;;12.50;99.90;;;;;;4958947;28;20538;-67
2021/09/18 04:50:28;;;;;;;17.77;15.97;;;12.50;99.90;;;;;;4958813;29;20459;-66
2021/09/18 04:52:56;;;;;;;16.27;14.77;;;12.50;99.90;;;;;;4961346;28;20455;-67
2021/09/18 04:55:23;;;;;;;17.90;16.27;;;12.40;99.90;;;;;;4963348;28;20455;-66
2021/09/18 04:57:50;;;;;;;15.80;14.30;;;12.40;99.90;;;;;;4963127;29;20455;-66
2021/09/18 05:00:17;;;;;;;18.57;15.47;;;12.50;99.90;;;;;;4963372;28;20459;-67
2021/09/18 05:02:43;;;;;;;15.97;14.47;;;12.50;99.90;;;;;;4961152;29;20810;-66
2021/09/18 05:05:11;;;;;;;18.13;15.80;;;12.40;99.90;;;;;;4959219;29;20459;-66
2021/09/18 05:07:37;;;;;;;18.40;16.70;;;12.30;99.90;;;;;;4958744;28;20994;-66
2021/09/18 05:10:06;;;;;;;18.13;16.17;;;12.20;99.90;;;;;;4959426;29;20463;-66
2021/09/18 05:12:33;;;;;;;17.00;15.53;;;12.10;99.90;;;;;;4958556;28;20487;-67
2021/09/18 05:15:00;;;;;;;18.53;16.00;;;12.10;99.90;;;;;;4958368;29;20466;-67
2021/09/18 05:17:26;;;;;;;18.47;16.60;;;12.10;99.90;;;;;;4958432;29;20812;-66
2021/09/18 05:19:53;;;;;;;16.80;15.17;;;12.10;99.90;;;;;;4958336;29;20459;-66
2021/09/18 05:22:20;;;;;;;16.43;15.03;;;12.10;99.90;;;;;;4957917;29;20487;-67
2021/09/18 05:24:46;;;;;;;16.53;15.03;;;12.10;99.90;;;;;;4958124;29;20459;-66
2021/09/18 05:27:15;;;;;;;15.90;14.50;;;12.20;99.90;;;;;;4958144;29;20479;-67
2021/09/18 05:29:43;;;;;;;16.13;14.70;;;12.30;99.90;;;;;;4956946;28;20462;-67
2021/09/18 05:32:10;;;;;;;16.13;14.57;;;12.30;99.90;;;;;;4957681;28;20476;-67
2021/09/18 05:34:37;;;;;;;18.13;14.80;;;12.40;99.90;;;;;;4957366;29;20489;-67
2021/09/18 05:37:04;;;;;;;16.60;14.90;;;12.30;99.90;;;;;;4957848;29;20452;-67
2021/09/18 05:39:31;;;;;;;17.13;15.73;;;12.30;99.90;;;;;;4959768;29;20832;-67
2021/09/18 05:41:58;;;;;;;17.00;15.50;;;12.20;99.90;;;;;;4958594;29;20502;-67
2021/09/18 05:44:26;;;;;;;18.33;16.63;;;12.10;99.90;;;;;;4957906;29;20482;-67
2021/09/18 05:46:53;;;;;;;17.90;16.17;;;12.10;99.90;;;;;;4957590;29;20456;-66
2021/09/18 05:49:19;;;;;;;16.30;14.90;;;12.00;99.90;;;;;;4957481;28;20459;-66
2021/09/18 05:51:46;;;;;;;18.63;16.70;;;12.00;99.90;;;;;;4957545;28;20475;-66
2021/09/18 05:54:13;;;;;;;17.50;16.00;;;11.90;99.90;;;;;;4957601;29;20455;-67
2021/09/18 05:56:40;;;;;;;18.53;16.63;;;12.00;99.90;;;;;;4957547;29;20467;-67
2021/09/18 05:59:06;;;;;;;16.80;15.20;;;12.10;99.90;;;;;;4957246;29;20795;-67
2021/09/18 06:01:34;;;;;;;19.57;16.87;;;12.10;99.90;;;;;;4957070;28;20494;-67
2021/09/18 06:04:01;;;;;;;17.70;16.03;;;12.00;99.90;;;;;;4957335;28;20943;-65
2021/09/18 06:06:28;;;;;;;18.27;16.67;;;12.10;99.90;;;;;;4958334;29;20464;-67
2021/09/18 06:08:54;;;;;;;16.67;15.20;;;12.10;99.90;;;;;;4957040;29;20518;-67
2021/09/18 06:11:21;;;;;;;16.63;14.73;;;12.10;99.90;;;;;;4956834;29;20982;-67
2021/09/18 06:13:48;;;;;;;14.87;13.47;;;12.60;99.90;;;;;;4957120;29;20470;-67
2021/09/18 06:16:15;;;;;;;12.77;11.67;;;13.20;99.90;;;;;;4957184;29;20495;-67
2021/09/18 06:18:43;;;;;;;11.77;10.60;;;13.80;99.90;;;;;;4956937;29;20616;-67
2021/09/18 06:21:10;;;;;;;10.67;9.77;;;14.40;99.90;;;;;;4956425;29;20557;-68
2021/09/18 06:23:37;;;;;;;11.53;10.40;;;15.10;99.90;;;;;;4956639;29;20464;-67
2021/09/18 06:26:04;;;;;;;11.77;10.77;;;15.80;99.90;;;;;;4956563;29;20506;-67
2021/09/18 06:28:31;;;;;;;12.00;10.90;;;16.20;99.90;;;;;;4956760;29;20480;-67
2021/09/18 06:30:58;;;;;;;12.00;10.70;;;16.50;99.90;;;;;;4957310;29;20482;-68
2021/09/18 06:33:25;;;;;;;11.20;10.20;;;16.90;99.90;;;;;;4956226;29;20962;-67
2021/09/18 06:35:53;;;;;;;10.27;9.47;;;17.40;99.90;;;;;;4956124;29;21002;-67
2021/09/18 06:38:22;;;;;;;11.00;10.20;;;17.80;99.90;;;;;;4956562;28;20781;-67
2021/09/18 06:40:49;;;;;;;11.20;10.10;;;18.30;99.90;;;;;;4956497;28;20475;-67
2021/09/18 06:43:16;;;;;;;11.07;10.13;;;18.60;99.90;;;;;;4957086;29;20458;-67
2021/09/18 06:45:43;;;;;;;10.93;9.80;;;18.90;99.90;;;;;;4956878;29;20466;-67
2021/09/18 06:48:10;;;;;;;10.70;9.87;;;19.20;99.90;;;;;;4956748;29;20488;-67
2021/09/18 06:50:37;;;;;;;10.50;9.67;;;19.30;99.90;;;;;;4956899;29;21042;-67
2021/09/18 06:53:06;;;;;;;11.70;10.73;;;19.60;99.90;;;;;;4956871;29;21037;-67
2021/09/18 06:55:34;;;;;;;10.33;9.63;;;19.80;99.90;;;;;;4957314;28;20885;-67
2021/09/18 06:58:01;;;;;;;12.37;9.90;;;19.60;99.90;;;;;;4956361;29;20811;-68
2021/09/18 07:00:28;;;;;;;15.07;9.67;;;19.80;99.90;;;;;;4956180;29;20456;-68
2021/09/18 07:02:55;;;;;;;10.70;9.90;;;20.20;99.90;;;;;;4956693;29;20789;-68
2021/09/18 07:05:22;;;;;;;10.83;10.00;;;20.70;99.90;;;;;;4956831;29;20517;-68
2021/09/18 07:07:49;;;;;;;9.40;8.80;;;20.90;99.90;;;;;;4956391;28;20475;-68
2021/09/18 07:10:17;;;;;;;10.77;9.77;;;21.00;99.90;;;;;;4956615;29;20463;-68
2021/09/18 07:12:44;;;;;;;10.40;9.60;;;21.20;99.90;;;;;;4956363;29;20530;-68
2021/09/18 07:15:12;;;;;;;10.47;9.77;;;21.60;99.90;;;;;;4956388;29;20464;-67
2021/09/18 07:17:39;;;;;;;11.23;10.13;;;21.90;99.90;;;;;;4956075;29;20457;-67
2021/09/18 07:20:07;;;;;;;10.77;10.07;;;22.00;99.90;;;;;;4955399;28;20943;-67
2021/09/18 07:22:33;;;;;;;10.60;9.70;;;21.90;99.90;;;;;;4956674;28;20490;-68
2021/09/18 07:25:00;;;;;;;10.10;9.40;;;22.10;99.90;;;;;;4956048;29;21036;-68
2021/09/18 07:27:28;;;;;;;11.10;10.10;;;22.60;99.90;;;;;;4956018;29;20467;-67
2021/09/18 07:29:57;;;;;;;11.47;10.47;;;22.50;99.90;;;;;;4955882;28;20951;-66
2021/09/18 07:32:24;;;;;;;10.00;9.20;;;22.00;99.90;;;;;;4955735;29;20511;-66
2021/09/18 07:34:51;;;;;;;10.93;9.77;;;22.40;99.90;;;;;;4956023;29;20459;-66
2021/09/18 07:37:18;;;;;;;11.50;10.40;;;23.20;99.90;;;;;;4955982;29;20460;-66
2021/09/18 07:39:45;;;;;;;9.97;9.17;;;23.70;99.90;;;;;;4956308;29;20455;-66
2021/09/18 07:42:12;;;;;;;9.60;8.87;;;24.60;99.90;;;;;;4956233;29;20502;-67
2021/09/18 07:44:40;;;;;;;9.87;9.00;;;25.20;99.90;;;;;;4955958;29;20463;-67
2021/09/18 07:47:06;;;;;;;9.63;8.93;;;25.80;99.90;;;;;;4956025;29;20463;-67
2021/09/18 07:49:33;;;;;;;9.77;9.03;;;26.00;98.50;;;;;;4955454;29;20479;-67
2021/09/18 07:52:00;;;;;;;10.30;9.50;;;26.20;97.10;;;;;;4956332;28;20478;-67
2021/09/18 07:54:27;;;;;;;9.73;8.83;;;26.20;97.00;;;;;;4959927;29;20487;-67
2021/09/18 07:56:53;;;;;;;9.50;8.57;;;26.60;96.60;;;;;;4959845;29;20946;-66
2021/09/18 07:59:20;;;;;;;9.60;8.80;;;27.20;95.40;;;;;;4960606;28;20455;-66
2021/09/18 08:01:48;;;;;;;10.27;9.37;;;27.30;94.20;;;;;;4959870;28;20479;-66
2021/09/18 08:04:15;;;;;;;9.40;8.70;;;27.30;93.40;;;;;;4959680;29;20522;-66
2021/09/18 08:06:42;;;;;;;9.90;9.20;;;27.20;94.50;;;;;;4960461;29;20460;-66
2021/09/18 08:09:09;;;;;;;9.13;8.53;;;27.60;92.80;;;;;;4959762;28;20542;-66
2021/09/18 08:11:35;;;;;;;9.87;8.90;;;28.10;91.90;;;;;;4960152;29;20479;-66
2021/09/18 08:14:03;;;;;;;9.83;8.93;;;28.60;91.00;;;;;;4960176;29;20455;-66
2021/09/18 08:16:30;;;;;;;9.87;9.10;;;28.10;90.30;;;;;;4959215;28;20451;-66
2021/09/18 08:18:58;;;;;;;9.47;8.77;;;28.10;90.60;;;;;;4959410;28;20463;-66
2021/09/18 08:21:25;;;;;;;8.90;8.30;;;28.10;90.80;;;;;;4959771;29;20842;-67
2021/09/18 08:23:51;;;;;;;9.30;8.50;;;28.70;89.40;;;;;;4959508;28;20463;-67
2021/09/18 08:26:18;;;;;;;10.00;9.33;;;28.90;88.10;;;;;;4959692;29;20455;-67
2021/09/18 08:28:45;;;;;;;8.80;8.10;;;29.10;85.50;;;;;;4959142;29;20502;-67
2021/09/18 08:31:12;;;;;;;8.30;7.73;;;30.10;82.90;;;;;;4959521;28;20483;-67
2021/09/18 08:33:40;;;;;;;9.00;8.50;;;30.40;80.70;;;;;;4959927;29;20482;-67
2021/09/18 08:36:08;;;;;;;9.30;8.60;;;30.70;78.50;;;;;;4960775;29;20468;-67
2021/09/18 08:38:35;;;;;;;8.33;7.90;;;30.00;79.40;;;;;;4961795;29;20455;-67
2021/09/18 08:41:02;;;;;;;9.73;9.03;;;29.90;81.70;;;;;;4961614;28;20475;-67
2021/09/18 08:43:28;;;;;;;8.73;8.13;;;30.10;77.70;;;;;;4959040;29;20466;-67
2021/09/18 08:45:55;;;;;;;8.30;7.80;;;30.40;76.30;;;;;;4958600;29;20862;-67
2021/09/18 08:48:23;;;;;;;9.97;9.03;;;30.20;76.20;;;;;;4958932;29;20498;-67
2021/09/18 08:50:51;;;;;;;8.97;8.07;;;30.70;73.80;;;;;;4958578;29;20882;-68
2021/09/18 08:53:20;;;;;;;8.27;7.63;;;30.90;78.20;;;;;;4958607;28;20459;-68
2021/09/18 08:55:52;;;;;;;8.30;7.67;;;30.80;70.20;;;;;;4958608;29;20455;-68
2021/09/18 08:58:19;;;;;;;9.07;8.30;;;31.10;72.60;;;;;;4958675;29;20862;-68
2021/09/18 09:00:48;;;;;;;9.37;8.80;;;31.10;71.20;;;;;;4958595;28;20487;-68
2021/09/18 09:03:23;;;;;;;10.27;9.67;;;30.60;69.30;;;;;;4958327;28;20890;-68
2021/09/18 09:05:50;;;;;;;9.70;8.77;;;30.20;73.40;;;;;;4958586;29;20438;-68
2021/09/18 09:08:21;;;;;;;10.30;9.53;;;30.90;72.40;;;;;;4958613;28;20484;-67
2021/09/18 09:10:48;;;;;;;9.23;8.33;;;30.00;73.20;;;;;;4958449;29;20546;-68
2021/09/18 09:13:18;;;;;;;10.67;9.90;;;29.70;75.30;;;;;;4957974;28;20459;-67
2021/09/18 09:15:46;;;;;;;10.00;9.30;;;29.40;78.40;;;;;;4959417;28;20448;-67
2021/09/18 09:18:21;;;;;;;10.40;9.80;;;30.40;76.70;;;;;;4958209;28;20546;-67
2021/09/18 09:20:50;;;;;;;9.73;9.07;;;30.90;76.50;;;;;;4958199;29;20568;-68
2021/09/18 09:23:20;;;;;;;10.53;9.73;;;31.10;72.30;;;;;;4958822;29;20459;-68
2021/09/18 09:25:51;;;;;;;9.87;9.27;;;31.30;70.10;;;;;;4958806;29;20471;-67
2021/09/18 09:28:31;;;;;;;9.90;9.30;;;32.00;69.10;;;;;;4958181;29;20483;-68
2021/09/18 09:31:13;;;;;;;9.33;8.43;;;32.20;68.50;;;;;;4959932;28;20515;-68
2021/09/18 09:34:02;;;;;;;9.60;9.00;;;31.90;68.40;;;;;;4959598;29;20443;-67
2021/09/18 09:36:30;;;;;;;10.50;9.70;;;31.90;65.40;;;;;;4958650;28;20447;-68
2021/09/18 09:39:01;;;;;;;8.40;7.80;;;31.70;68.80;;;;;;4958096;29;20463;-68
2021/09/18 09:41:36;;;;;;;10.43;9.77;;;32.50;65.10;;;;;;4958949;29;20555;-68
2021/09/18 09:44:04;;;;;;;8.53;8.03;;;32.50;63.10;;;;;;4958222;29;20436;-68
2021/09/18 09:46:32;;;;;;;8.37;7.90;;;32.20;66.50;;;;;;4958428;29;20510;-69
2021/09/18 09:49:12;;;;;;;9.47;8.77;;;32.60;62.80;;;;;;4957947;28;20476;-69
2021/09/18 09:51:40;;;;;;;8.70;8.07;;;32.40;62.20;;;;;;4958098;29;20886;-68
2021/09/18 09:54:26;;;;;;;8.00;7.40;;;33.20;65.30;;;;;;4957720;28;20522;-68
2021/09/18 09:57:10;;;;;;;6.97;6.63;;;33.50;60.40;;;;;;4958232;29;20450;-67
2021/09/18 09:59:37;;;;;;;5.90;5.40;;;32.40;60.90;;;;;;4957639;29;20443;-67
2021/09/18 10:02:06;;;;;;;5.87;5.43;;;32.30;63.30;;;;;;4957273;28;20491;-67
2021/09/18 10:04:33;;;;;;;5.23;4.93;;;32.70;57.20;;;;;;4957344;29;20514;-68
2021/09/18 10:06:59;;;;;;;6.30;5.90;;;33.40;56.90;;;;;;4957000;29;20460;-68
2021/09/18 10:09:28;;;;;;;5.13;4.83;;;33.40;60.70;;;;;;4957339;29;20480;-68
2021/09/18 10:11:56;;;;;;;5.50;5.20;;;32.80;59.10;;;;;;4957172;29;20507;-68
2021/09/18 10:14:26;;;;;;;3.93;3.73;;;32.70;59.90;;;;;;4957105;28;20459;-68
2021/09/18 10:16:55;;;;;;;2.60;2.40;;;32.70;58.10;;;;;;4957011;29;20484;-68
2021/09/18 10:19:40;;;;;;;3.50;3.40;;;33.20;55.20;;;;;;4957559;29;20458;-68
2021/09/18 10:24:54;;;;;;;3.03;2.93;;;33.60;57.40;;;;;;4957516;29;20419;-68
2021/09/18 10:27:23;;;;;;;2.87;2.77;;;33.30;55.00;;;;;;4956967;29;20456;-68
2021/09/18 10:29:51;;;;;;;2.70;2.50;;;33.50;54.40;;;;;;4956999;29;20477;-65
2021/09/18 10:32:19;;;;;;;2.53;2.33;;;34.10;54.20;;;;;;4956711;28;20553;-65
2021/09/18 10:34:46;;;;;;;2.30;2.10;;;33.00;53.20;;;;;;4956632;28;20455;-66
2021/09/18 10:37:32;;;;;;;2.37;2.07;;;33.30;50.40;;;;;;4956675;29;20461;-65
2021/09/18 10:40:06;;;;;;;2.40;2.30;;;34.10;50.70;;;;;;4957074;29;20495;-66
2021/09/18 10:42:34;;;;;;;7.23;3.70;;;33.90;52.70;;;;;;4956288;29;20850;-66
2021/09/18 10:45:01;;;;;;;3.50;3.30;;;33.90;54.80;;;;;;4956430;28;20468;-66
2021/09/18 10:47:37;;;;;;;3.57;3.37;;;33.80;54.40;;;;;;4956632;29;20456;-66
2021/09/18 10:50:06;;;;;;;3.57;3.37;;;32.70;54.50;;;;;;4957053;29;20478;-69
2021/09/18 10:52:36;;;;;;;2.67;2.57;;;32.90;54.40;;;;;;4956877;28;20479;-69
2021/09/18 10:55:15;;;;;;;2.27;2.17;;;32.90;56.00;;;;;;4957154;29;20456;-69
2021/09/18 10:58:08;;;;;;;2.87;2.77;;;32.90;53.40;;;;;;4957057;28;20455;-69
2021/09/18 11:00:41;;;;;;;3.17;3.07;;;32.50;55.20;;;;;;4957156;29;20483;-69
2021/09/18 11:03:08;;;;;;;3.43;3.23;;;31.20;56.10;;;;;;4957799;28;20785;-69
2021/09/18 11:05:46;;;;;;;3.50;3.30;;;30.80;55.10;;;;;;4956856;29;20470;-68
2021/09/18 11:08:27;;;;;;;3.50;3.20;;;30.60;58.30;;;;;;4956778;29;20835;-68
2021/09/18 11:10:58;;;;;;;3.00;2.77;;;30.50;56.80;;;;;;4956866;29;20480;-68
2021/09/18 11:13:27;;;;;;;2.67;2.57;;;30.10;60.50;;;;;;4956329;29;20440;-68
2021/09/18 11:15:55;;;;;;;3.43;3.10;;;29.60;60.50;;;;;;4956347;29;20466;-68
2021/09/18 11:18:32;;;;;;;3.43;3.20;;;29.20;60.10;;;;;;4956111;29;20967;-69
2021/09/18 11:21:12;;;;;;;3.13;3.03;;;29.00;61.70;;;;;;4956217;29;20557;-68
2021/09/18 11:23:44;;;;;;;3.77;3.47;;;28.80;60.50;;;;;;4956520;28;20450;-68
2021/09/18 11:26:38;;;;;;;3.70;3.50;;;28.60;60.00;;;;;;4956875;28;20462;-68
2021/09/18 11:29:34;;;;;;;3.70;3.50;;;28.50;59.70;;;;;;4960940;29;20489;-68
2021/09/18 11:32:07;;;;;;;3.67;3.37;;;28.20;60.80;;;;;;4958499;28;20479;-69
2021/09/18 11:34:35;;;;;;;4.60;4.30;;;28.00;64.50;;;;;;4961878;29;20435;-69
2021/09/18 11:37:05;;;;;;;4.10;3.90;;;28.00;72.00;;;;;;4960713;29;20451;-69
2021/09/18 11:39:47;;;;;;;4.40;4.20;;;28.00;63.70;;;;;;4960383;28;20455;-69
2021/09/18 11:42:22;;;;;;;5.00;4.60;;;27.40;67.70;;;;;;4960236;29;20479;-69
2021/09/18 11:44:51;;;;;;;4.87;4.57;;;27.10;66.10;;;;;;4959942;29;20435;-68
2021/09/18 11:47:26;;;;;;;4.40;4.20;;;27.20;65.40;;;;;;4960131;29;20444;-69
2021/09/18 11:49:53;;;;;;;4.17;3.97;;;27.40;68.80;;;;;;4960046;29;20483;-69
2021/09/18 11:52:31;;;;;;;4.20;3.90;;;27.30;69.20;;;;;;4959845;28;20486;-68
2021/09/18 11:54:58;;;;;;;4.33;4.03;;;27.00;72.70;;;;;;4959722;29;20439;-68
2021/09/18 11:57:26;;;;;;;5.00;4.60;;;27.10;69.90;;;;;;4959777;29;20455;-69
2021/09/18 11:59:52;;;;;;;4.27;4.00;;;27.10;71.50;;;;;;4959848;29;20478;-68
2021/09/18 12:02:30;;;;;;;5.70;5.30;;;27.00;70.90;;;;;;4959526;28;20483;-69
2021/09/18 12:04:57;;;;;;;5.47;5.17;;;27.10;67.50;;;;;;4959587;29;20486;-68
2021/09/18 12:07:24;;;;;;;4.70;4.40;;;27.10;72.00;;;;;;4959646;28;20462;-68
2021/09/18 12:09:50;;;;;;;5.53;5.07;;;27.00;73.80;;;;;;4959525;29;20483;-68
2021/09/18 12:12:29;;;;;;;4.27;3.97;;;27.00;71.60;;;;;;4958970;29;20482;-69
2021/09/18 12:14:57;;;;;;;5.07;4.80;;;26.90;71.90;;;;;;4959507;28;20466;-69
2021/09/18 12:17:24;;;;;;;5.10;4.70;;;27.00;73.40;;;;;;4959220;29;20969;-69
2021/09/18 12:19:51;;;;;;;4.83;4.53;;;27.10;73.60;;;;;;4959708;28;20957;-69
2021/09/18 12:22:18;;;;;;;4.40;4.20;;;27.30;72.90;;;;;;4960664;29;20479;-69
2021/09/18 12:24:48;;;;;;;4.37;4.07;;;27.10;69.10;;;;;;4960122;29;20443;-68
2021/09/18 12:27:32;;;;;;;4.00;3.77;;;27.30;72.20;;;;;;4959399;29;20874;-68
2021/09/18 12:30:01;;;;;;;4.90;4.70;;;27.20;71.20;;;;;;4960594;29;20471;-68
2021/09/18 12:32:29;;;;;;;5.27;4.97;;;27.10;69.70;;;;;;4959242;28;20571;-69
2021/09/18 12:35:03;;;;;;;4.37;4.07;;;26.60;69.50;;;;;;4959116;29;20446;-68
2021/09/18 12:37:33;;;;;;;5.70;5.30;;;26.70;68.50;;;;;;4958845;28;20907;-68
2021/09/18 12:40:12;;;;;;;4.67;4.40;;;26.80;68.30;;;;;;4959148;29;20451;-69
2021/09/18 12:42:40;;;;;;;4.90;4.60;;;26.90;69.40;;;;;;4959609;29;20439;-69
2021/09/18 12:45:24;;;;;;;4.80;4.50;;;26.70;71.30;;;;;;4959015;28;20522;-68
2021/09/18 12:48:09;;;;;;;4.20;4.00;;;26.80;73.40;;;;;;4959011;29;20479;-69
2021/09/18 12:50:51;;;;;;;5.33;5.03;;;27.00;70.90;;;;;;4958905;29;20849;-69
2021/09/18 12:53:19;;;;;;;5.93;5.60;;;26.80;70.60;;;;;;4958938;29;20443;-69
2021/09/18 12:56:05;;;;;;;4.90;4.50;;;26.50;71.20;;;;;;4959036;29;20799;-69
2021/09/18 12:58:34;;;;;;;5.57;5.17;;;26.60;72.60;;;;;;4958454;29;20939;-69
2021/09/18 13:01:02;;;;;;;4.50;4.20;;;26.60;70.40;;;;;;4958263;29;20534;-69
2021/09/18 13:03:29;;;;;;;4.50;4.20;;;26.50;73.70;;;;;;4958368;29;20864;-70
2021/09/18 13:05:59;;;;;;;4.70;4.30;;;26.50;74.50;;;;;;4958377;29;20466;-69
2021/09/18 13:08:26;;;;;;;4.67;4.47;;;26.60;74.00;;;;;;4958543;29;20447;-69
2021/09/18 13:10:53;;;;;;;4.50;4.23;;;26.80;72.10;;;;;;4958388;29;20487;-69
2021/09/18 13:13:36;;;;;;;4.73;4.40;;;27.00;69.10;;;;;;4958284;28;20459;-69
2021/09/18 13:16:04;;;;;;;4.00;3.87;;;26.80;66.70;;;;;;4958258;29;20460;-69
2021/09/18 13:18:31;;;;;;;4.90;4.60;;;26.50;68.60;;;;;;4958418;29;20456;-69
2021/09/18 13:20:58;;;;;;;4.70;4.40;;;26.10;74.30;;;;;;4958167;29;20471;-69
2021/09/18 13:23:24;;;;;;;5.53;5.13;;;26.00;75.10;;;;;;4957953;29;20463;-69
2021/09/18 13:25:51;;;;;;;4.60;4.40;;;25.80;78.00;;;;;;4958139;28;20459;-69
2021/09/18 13:28:18;;;;;;;4.80;4.53;;;25.80;75.40;;;;;;4957794;29;20852;-69
2021/09/18 13:30:46;;;;;;;4.50;4.30;;;25.90;76.60;;;;;;4957998;29;20480;-69
2021/09/18 13:33:12;;;;;;;5.00;4.70;;;26.10;78.50;;;;;;4957858;29;20459;-69
2021/09/18 13:35:39;;;;;;;4.73;4.43;;;26.20;80.60;;;;;;4958287;29;20463;-69
2021/09/18 13:38:06;;;;;;;4.23;4.03;;;26.30;77.60;;;;;;4957403;29;20464;-69
2021/09/18 13:40:33;;;;;;;5.00;4.53;;;26.30;75.60;;;;;;4957608;28;20839;-69
2021/09/18 13:42:59;;;;;;;4.47;4.27;;;26.40;76.00;;;;;;4957725;29;20463;-69
2021/09/18 13:45:26;;;;;;;4.30;3.90;;;26.50;77.30;;;;;;4957713;29;20470;-69
2021/09/18 13:47:54;;;;;;;4.97;4.57;;;26.60;78.90;;;;;;4957260;29;20962;-69
2021/09/18 13:50:21;;;;;;;4.17;3.90;;;26.80;73.00;;;;;;4956776;28;20479;-69
2021/09/18 13:52:48;;;;;;;3.83;3.63;;;26.60;74.50;;;;;;4957367;28;20462;-69
2021/09/18 13:55:14;;;;;;;4.30;4.10;;;26.60;73.20;;;;;;4957556;29;20550;-69
2021/09/18 13:57:42;;;;;;;5.83;4.60;;;26.60;76.70;;;;;;4957688;29;20490;-69
2021/09/18 14:00:10;;;;;;;4.27;4.07;;;26.50;76.40;;;;;;4957810;28;20459;-69
2021/09/18 14:02:36;;;;;;;4.10;3.90;;;26.50;72.70;;;;;;4957301;29;20475;-69
2021/09/18 14:05:05;;;;;;;3.90;3.70;;;26.10;73.00;;;;;;4957395;29;20455;-69
2021/09/18 14:07:32;;;;;;;3.73;3.50;;;26.40;74.20;;;;;;4957216;28;20867;-69
2021/09/18 14:09:59;;;;;;;5.30;4.10;;;26.50;74.00;;;;;;4957257;29;20479;-69
2021/09/18 14:12:26;;;;;;;4.60;4.20;;;26.40;72.60;;;;;;4957123;29;20475;-69
2021/09/18 14:14:52;;;;;;;3.97;3.77;;;26.20;75.60;;;;;;4957258;29;20464;-69
2021/09/18 14:17:19;;;;;;;4.37;4.07;;;26.30;74.90;;;;;;4957296;28;20452;-69
2021/09/18 14:19:46;;;;;;;3.70;3.50;;;26.50;74.40;;;;;;4956693;29;20939;-69
2021/09/18 14:22:14;;;;;;;4.70;4.40;;;26.60;73.70;;;;;;4956937;29;20476;-69
2021/09/18 14:24:41;;;;;;;4.20;4.00;;;26.50;68.20;;;;;;4956756;29;20459;-69
2021/09/18 14:27:07;;;;;;;3.77;3.57;;;26.50;72.10;;;;;;4956738;28;20465;-69
2021/09/18 14:29:34;;;;;;;4.10;3.90;;;26.30;71.60;;;;;;4956294;29;20455;-69
2021/09/18 14:32:02;;;;;;;3.80;3.60;;;26.30;71.30;;;;;;4956629;29;20475;-69
2021/09/18 14:34:28;;;;;;;3.80;3.60;;;26.30;67.40;;;;;;4956526;29;20462;-69
2021/09/18 14:36:55;;;;;;;3.43;3.30;;;26.10;70.80;;;;;;4956753;29;20482;-69
2021/09/18 14:39:23;;;;;;;4.40;3.40;;;26.30;69.10;;;;;;4956852;28;20459;-69
2021/09/18 14:41:50;;;;;;;3.80;3.70;;;25.80;71.60;;;;;;4956722;29;20498;-69
2021/09/18 14:44:17;;;;;;;4.37;4.17;;;25.90;72.40;;;;;;4956819;29;20460;-69
2021/09/18 14:46:44;;;;;;;4.20;3.90;;;25.90;72.60;;;;;;4956719;29;20455;-69
2021/09/18 14:49:11;;;;;;;6.47;4.60;;;25.90;76.20;;;;;;4956704;28;20562;-69
2021/09/18 14:51:38;;;;;;;4.40;4.10;;;25.80;74.00;;;;;;4956001;28;20490;-68
2021/09/18 14:54:05;;;;;;;4.70;4.50;;;25.70;74.70;;;;;;4956443;29;20465;-69
2021/09/18 14:56:33;;;;;;;5.10;4.33;;;25.50;74.70;;;;;;4958109;29;20459;-69
2021/09/18 14:59:00;;;;;;;5.00;4.70;;;24.90;73.10;;;;;;4958785;29;20467;-69
2021/09/18 15:01:27;;;;;;;4.80;4.50;;;24.80;76.90;;;;;;4956772;28;21003;-70
2021/09/18 15:03:54;;;;;;;4.97;4.67;;;24.90;75.30;;;;;;4956896;29;20538;-69
2021/09/18 15:06:21;;;;;;;4.00;3.73;;;25.10;77.50;;;;;;4956857;29;20466;-69
2021/09/18 15:08:48;;;;;;;6.00;5.40;;;24.90;74.50;;;;;;4956718;29;20466;-69
2021/09/18 15:11:16;;;;;;;5.00;4.50;;;25.00;76.70;;;;;;4956499;29;20557;-69
2021/09/18 15:13:44;;;;;;;5.40;5.10;;;24.60;75.60;;;;;;4956009;28;20818;-69
2021/09/18 15:16:11;;;;;;;5.50;5.10;;;24.40;77.00;;;;;;4956222;29;20519;-69
2021/09/18 15:18:38;;;;;;;5.57;4.93;;;24.30;77.90;;;;;;4956161;29;20456;-69
2021/09/18 15:21:05;;;;;;;4.60;4.40;;;24.30;78.30;;;;;;4956189;29;20526;-68
2021/09/18 15:23:31;;;;;;;4.70;4.47;;;24.20;79.80;;;;;;4955443;29;20939;-69
2021/09/18 15:25:58;;;;;;;5.03;4.73;;;24.30;74.20;;;;;;4956107;29;20487;-69
2021/09/18 15:28:25;;;;;;;5.37;5.07;;;24.30;75.80;;;;;;4955820;28;20918;-69
2021/09/18 15:30:56;;;;;;;4.67;4.37;;;24.50;77.60;;;;;;4956031;29;20487;-69
2021/09/18 15:33:23;;;;;;;5.47;4.97;;;24.50;76.90;;;;;;4956165;29;20451;-69
2021/09/18 15:35:51;;;;;;;4.90;4.60;;;24.50;74.80;;;;;;4956144;29;20467;-69
2021/09/18 15:38:18;;;;;;;4.20;4.00;;;24.30;76.60;;;;;;4955997;29;20451;-69
2021/09/18 15:40:45;;;;;;;4.57;4.13;;;24.30;73.60;;;;;;4955742;29;20837;-69
2021/09/18 15:43:12;;;;;;;4.80;4.50;;;24.30;73.80;;;;;;4955760;29;20939;-69
2021/09/18 15:45:39;;;;;;;4.90;4.60;;;24.30;74.80;;;;;;4955927;29;20463;-69
2021/09/18 15:48:08;;;;;;;4.97;4.70;;;24.20;77.60;;;;;;4960576;28;20455;-69
2021/09/18 15:50:34;;;;;;;4.10;3.90;;;24.10;77.20;;;;;;4968785;29;20490;-69
2021/09/18 15:53:01;;;;;;;4.90;4.60;;;24.10;76.90;;;;;;4968515;29;20493;-69
2021/09/18 15:55:28;;;;;;;4.43;4.23;;;24.10;73.70;;;;;;4968820;29;20447;-69
2021/09/18 15:57:55;;;;;;;5.90;5.50;;;24.00;75.30;;;;;;4966052;29;20514;-68
2021/09/18 16:00:21;;;;;;;6.13;4.97;;;23.90;73.80;;;;;;4955753;29;20911;-69
2021/09/18 16:02:48;;;;;;;4.83;4.53;;;23.90;76.00;;;;;;4955967;29;20788;-69
2021/09/18 16:05:16;;;;;;;4.47;4.27;;;23.80;77.40;;;;;;4955724;29;20482;-68
2021/09/18 16:07:43;;;;;;;4.67;4.37;;;23.50;76.30;;;;;;4955560;29;20460;-69
2021/09/18 16:10:10;;;;;;;4.80;4.50;;;23.50;76.70;;;;;;4955226;29;20962;-69
2021/09/18 16:12:37;;;;;;;5.30;4.90;;;23.40;80.30;;;;;;4955599;28;20841;-69
2021/09/18 16:15:05;;;;;;;5.57;5.17;;;23.40;79.00;;;;;;4959207;29;20455;-69
2021/09/18 16:17:31;;;;;;;5.60;5.23;;;23.20;81.90;;;;;;4958771;28;20943;-68
2021/09/18 16:19:58;;;;;;;5.77;5.47;;;23.10;81.60;;;;;;4959309;28;20459;-69
2021/09/18 16:22:26;;;;;;;6.30;5.90;;;23.00;82.30;;;;;;4959512;29;20475;-68
2021/09/18 16:24:53;;;;;;;6.00;5.60;;;22.90;80.60;;;;;;4959557;28;20459;-68
2021/09/18 16:27:20;;;;;;;6.20;5.80;;;22.80;81.80;;;;;;4959345;29;20455;-68
2021/09/18 16:29:46;;;;;;;5.10;4.60;;;22.80;84.20;;;;;;4959105;29;20911;-68
2021/09/18 16:32:13;;;;;;;5.40;5.10;;;22.70;83.40;;;;;;4959141;28;20491;-69
2021/09/18 16:34:40;;;;;;;5.47;5.17;;;22.60;83.50;;;;;;4959285;29;20455;-69
2021/09/18 16:37:11;;;;;;;4.70;4.40;;;22.60;84.40;;;;;;4958712;29;20460;-68
2021/09/18 16:39:39;;;;;;;5.80;5.10;;;22.50;84.70;;;;;;4959100;29;20607;-68
2021/09/18 16:42:06;;;;;;;5.00;4.70;;;22.30;83.50;;;;;;4959301;29;20479;-68
2021/09/18 16:44:33;;;;;;;5.57;5.17;;;22.30;86.80;;;;;;4959148;28;20509;-68
2021/09/18 16:47:00;;;;;;;5.73;5.20;;;22.20;88.10;;;;;;4958765;29;20462;-68
2021/09/18 16:49:26;;;;;;;5.40;5.00;;;22.20;90.00;;;;;;4958741;28;20459;-68
2021/09/18 16:51:53;;;;;;;5.93;4.90;;;22.10;90.70;;;;;;4958610;29;20483;-68